Airfield :







YOU CAN JOIN US ON...

 
LOGIN :

Register | Disclaimer

   EN    FR    IT 

 









Legend :    VFR   Marginal VFR   IFR   Intensive IFR   Very Intensive IFR
Visi :
Ceiling :
>= 8 km
>= 3000ft
5 to 8 km
1000 to 3000 ft
1500m to 5 km
500 to 1000 ft
800 to 1500m
200 to 500 ft
< 800m
< 200 ft
Symbols :   Thunderstorms  Fog  Heavy snow  Heavy precipitations  Wind > 20 kt






- Airport Elevation : 215 ft
- IATA code : XGR


CYLU - Kangiqsualujjuaq (Georges River)

CURRENT METAR :
  • 281633Z 16008G17KT 130V230 3SM -SN BLSN FEW015 SCT038 OVC048 M17/M21 A2968 RMK SC1SC3SC4 SLP060

EXPIRED METARs :
  • 281600Z 17010G18KT 120V210 1 3/4SM -SN BLSN BKN038 OVC048 M17/M21 A2968 RMK BLSN1SC6SC1 SLP062
  • 281527Z 15016G21KT 1 3/4SM -SN BLSN OVC036 OVC044 M17/M20 A2968 RMK BLSN2SC6SC2 SLP062
  • 281506Z 15016G22KT 1SM -SN BLSN BKN034 M17/M20 A2969 RMK BLSN3SC5 SLP063
  • 281400Z 16017G24KT 1 3/4SM -SN BLSN OVC036 M17/M21 A2970 RMK BLSN3SC5 SLP066

TAF N/A



MET'MAP, your aeronautical weather chart ! - Copyright ORBIFLY December 2007 - Disclaimer

ORBIFLY MET'MAP TEAM :

Programming & Development : Alexandra Zaïnal
Concept & original design : Baudouin d'Aumeries
Assistance for programming : Marc-Olivier Méhu
Technical & hardware support : Manuel Goepfert

Contact : metmap@orbifly.com




SOURCES & CREDITS :

   NOAA